createdAt,value
2022-12-03T00:02:16.602Z,54.35
2022-12-03T00:04:43.659Z,56.62
2022-12-03T00:07:09.996Z,58.04
2022-12-03T00:09:36.647Z,62.23
2022-12-03T00:12:03.869Z,65.74
2022-12-03T00:14:30.261Z,62.57
2022-12-03T00:16:57.016Z,57.13
2022-12-03T00:19:23.444Z,56.65
2022-12-03T00:21:49.820Z,57.09
2022-12-03T00:24:16.204Z,59.40
2022-12-03T00:26:42.611Z,64.99
2022-12-03T00:29:09.144Z,66.30
2022-12-03T00:31:35.751Z,61.69
2022-12-03T00:34:02.463Z,55.19
2022-12-03T00:36:28.839Z,53.66
2022-12-03T00:38:56.319Z,58.90
2022-12-03T00:41:22.694Z,58.79
2022-12-03T00:43:49.428Z,61.30
2022-12-03T00:46:21.075Z,66.87
2022-12-03T00:48:55.602Z,66.58
2022-12-03T00:51:22.279Z,62.23
2022-12-03T00:53:50.081Z,57.36
2022-12-03T00:56:16.686Z,56.80
2022-12-03T00:58:43.130Z,58.35
2022-12-03T01:01:09.680Z,57.63
2022-12-03T01:03:36.038Z,60.42
2022-12-03T01:06:02.749Z,69.08
2022-12-03T01:08:31.192Z,65.67
2022-12-03T01:10:57.829Z,61.36
2022-12-03T01:13:24.283Z,56.26
2022-12-03T01:15:50.677Z,53.56
2022-12-03T01:18:17.906Z,58.17
2022-12-03T01:20:45.707Z,59.59
2022-12-03T01:23:12.099Z,60.53
2022-12-03T01:25:38.627Z,64.80
2022-12-03T01:28:05.041Z,66.25
2022-12-03T01:30:51.520Z,63.40
2022-12-03T01:33:18.153Z,58.18
2022-12-03T01:35:44.467Z,56.15
2022-12-03T01:38:10.855Z,58.45
2022-12-03T01:40:37.387Z,60.00
2022-12-03T01:43:03.974Z,60.71
2022-12-03T01:45:31.021Z,65.40
2022-12-03T01:47:58.988Z,70.64
2022-12-03T01:50:34.544Z,65.50
2022-12-03T01:53:04.344Z,60.59
2022-12-03T01:55:32.984Z,55.27
2022-12-03T01:58:01.988Z,53.28
2022-12-03T02:00:29.496Z,55.41
2022-12-03T02:03:03.973Z,56.76
2022-12-03T02:05:33.196Z,58.19
2022-12-03T02:08:01.951Z,58.99
2022-12-03T02:10:35.779Z,60.65
2022-12-03T02:13:08.174Z,66.20
2022-12-03T02:15:37.852Z,69.99
2022-12-03T02:18:05.063Z,66.28
2022-12-03T02:20:41.065Z,61.00
2022-12-03T02:23:42.646Z,54.78
2022-12-03T02:26:10.300Z,52.48
2022-12-03T02:28:37.840Z,55.04
2022-12-03T02:31:04.593Z,57.04
2022-12-03T02:33:31.984Z,58.76
2022-12-03T02:36:03.365Z,59.13
2022-12-03T02:38:34.360Z,62.37
2022-12-03T02:41:07.566Z,70.67
2022-12-03T02:43:34.131Z,68.05
2022-12-03T02:46:04.045Z,62.78
2022-12-03T02:48:37.935Z,55.84
2022-12-03T02:51:09.617Z,53.24
2022-12-03T02:53:43.932Z,55.95
2022-12-03T02:56:17.621Z,57.40
2022-12-03T02:58:47.862Z,58.50
2022-12-03T03:01:16.317Z,60.09
2022-12-03T03:03:45.906Z,66.42
2022-12-03T03:06:14.366Z,69.82
2022-12-03T03:08:42.535Z,63.94
2022-12-03T03:11:09.116Z,55.26
2022-12-03T03:13:37.311Z,52.78
2022-12-03T03:16:05.604Z,54.16
2022-12-03T03:18:33.960Z,56.52
2022-12-03T03:21:01.260Z,57.65
2022-12-03T03:23:27.856Z,58.92
2022-12-03T03:26:05.465Z,59.92
2022-12-03T03:28:40.887Z,68.59
2022-12-03T03:31:12.081Z,69.82
2022-12-03T03:33:42.721Z,62.98
2022-12-03T03:36:12.794Z,55.59
2022-12-03T03:38:43.039Z,53.47
2022-12-03T03:41:13.483Z,55.34
2022-12-03T03:43:43.840Z,57.68
2022-12-03T03:46:11.691Z,59.22
2022-12-03T03:48:40.736Z,59.77
2022-12-03T03:51:09.015Z,60.31
2022-12-03T03:53:42.166Z,65.70
2022-12-03T03:56:10.321Z,71.76
2022-12-03T03:58:38.279Z,64.81
2022-12-03T04:01:05.226Z,60.55
2022-12-03T04:03:31.701Z,55.39
2022-12-03T04:05:58.259Z,53.02
2022-12-03T04:08:24.683Z,55.75
2022-12-03T04:11:09.770Z,57.24
2022-12-03T04:13:37.730Z,60.04
2022-12-03T04:16:04.565Z,67.86
2022-12-03T04:18:44.688Z,68.40
2022-12-03T04:21:38.556Z,63.68
2022-12-03T04:24:09.423Z,57.51
2022-12-03T04:26:54.339Z,52.63
2022-12-03T04:29:21.676Z,53.27
2022-12-03T04:32:06.816Z,55.45
2022-12-03T04:34:52.868Z,57.52
2022-12-03T04:37:19.823Z,59.88
2022-12-03T04:39:48.205Z,59.51
2022-12-03T04:42:14.736Z,60.22
2022-12-03T04:44:42.151Z,66.09
2022-12-03T04:47:12.796Z,72.17
2022-12-03T04:49:43.347Z,65.75
2022-12-03T04:52:13.772Z,57.71
2022-12-03T04:54:41.379Z,53.74
2022-12-03T04:57:09.896Z,55.48
2022-12-03T04:59:38.338Z,57.49
2022-12-03T05:02:08.387Z,61.80
2022-12-03T05:04:35.049Z,67.93
2022-12-03T05:07:01.474Z,66.06
2022-12-03T05:09:27.966Z,61.61
2022-12-03T05:11:55.460Z,56.23
2022-12-03T05:14:22.293Z,52.98
2022-12-03T05:16:48.875Z,54.90
2022-12-03T05:19:15.475Z,57.58
2022-12-03T05:21:41.846Z,61.14
2022-12-03T05:24:08.352Z,65.99
2022-12-03T05:26:35.178Z,66.27
2022-12-03T05:29:01.744Z,62.31
2022-12-03T05:31:28.472Z,55.75
2022-12-03T05:33:54.919Z,53.40
2022-12-03T05:36:21.312Z,54.99
2022-12-03T05:38:47.934Z,56.64
2022-12-03T05:41:33.291Z,57.98
2022-12-03T05:43:59.647Z,59.40
2022-12-03T05:46:26.383Z,64.08
2022-12-03T05:48:52.911Z,70.20
2022-12-03T05:51:22.247Z,64.77
2022-12-03T05:53:48.700Z,62.43
2022-12-03T05:56:15.168Z,56.04
2022-12-03T05:58:41.616Z,53.70
2022-12-03T06:01:08.007Z,56.16
2022-12-03T06:03:34.858Z,58.38
2022-12-03T06:06:01.542Z,61.37
2022-12-03T06:08:28.059Z,68.41
2022-12-03T06:10:54.517Z,68.24
2022-12-03T06:13:20.891Z,63.01
2022-12-03T06:15:47.700Z,54.97
2022-12-03T06:18:14.393Z,53.28
2022-12-03T06:20:40.791Z,54.56
2022-12-03T06:23:07.171Z,56.11
2022-12-03T06:25:35.014Z,59.57
2022-12-03T06:28:01.349Z,58.10
2022-12-03T06:30:28.207Z,60.63
2022-12-03T06:32:55.135Z,64.29
2022-12-03T06:35:21.591Z,68.74
2022-12-03T06:37:49.461Z,65.29
2022-12-03T06:40:16.162Z,56.82
2022-12-03T06:42:42.920Z,51.71
2022-12-03T06:45:11.129Z,54.84
2022-12-03T06:47:37.788Z,56.79
2022-12-03T06:50:09.537Z,57.64
2022-12-03T06:52:37.202Z,60.70
2022-12-03T06:55:04.330Z,62.89
2022-12-03T06:57:31.005Z,65.51
2022-12-03T06:59:59.135Z,59.65
2022-12-03T07:02:25.576Z,53.68
2022-12-03T07:04:52.056Z,53.95
2022-12-03T07:07:18.476Z,58.10
2022-12-03T07:09:44.999Z,59.13
2022-12-03T07:12:12.415Z,59.96
2022-12-03T07:14:39.670Z,61.48
2022-12-03T07:17:06.295Z,64.23
2022-12-03T07:19:34.172Z,60.66
2022-12-03T07:22:01.057Z,55.28
2022-12-03T07:24:27.485Z,56.12
2022-12-03T07:26:54.157Z,54.96
2022-12-03T07:29:20.734Z,58.17
2022-12-03T07:31:47.642Z,60.43
2022-12-03T07:34:14.196Z,60.79
2022-12-03T07:36:40.815Z,60.57
2022-12-03T07:39:08.276Z,62.71
2022-12-03T07:41:34.707Z,65.97
2022-12-03T07:44:01.426Z,59.24
2022-12-03T07:46:28.045Z,55.72
2022-12-03T07:48:54.638Z,56.92
2022-12-03T07:51:21.625Z,59.55
2022-12-03T07:53:48.214Z,60.56
2022-12-03T07:56:15.103Z,61.24
2022-12-03T07:58:41.558Z,63.58
2022-12-03T08:01:09.788Z,65.77
2022-12-03T08:03:37.964Z,56.77
2022-12-03T08:06:05.309Z,54.80
2022-12-03T08:08:32.092Z,54.70
2022-12-03T08:11:02.497Z,56.16
2022-12-03T08:13:29.394Z,58.08
2022-12-03T08:16:08.699Z,59.79
2022-12-03T08:18:36.842Z,62.61
2022-12-03T08:21:09.311Z,64.40
2022-12-03T08:23:38.434Z,64.22
2022-12-03T08:26:31.364Z,54.70
2022-12-03T08:28:57.987Z,53.78
2022-12-03T08:31:32.749Z,55.90
2022-12-03T08:34:26.201Z,58.31
2022-12-03T08:37:20.786Z,56.63
2022-12-03T08:39:56.170Z,55.27
2022-12-03T08:42:45.150Z,57.94
2022-12-03T08:45:39.641Z,64.29
2022-12-03T08:48:31.915Z,63.98
2022-12-03T08:51:13.356Z,54.04
2022-12-03T08:53:47.946Z,52.62
2022-12-03T08:56:32.307Z,53.41
2022-12-03T08:59:19.252Z,56.58
2022-12-03T09:01:50.119Z,56.80
2022-12-03T09:04:46.118Z,58.33
2022-12-03T09:07:16.750Z,65.05
2022-12-03T09:09:44.773Z,67.40
2022-12-03T09:12:18.619Z,56.45
2022-12-03T09:14:51.396Z,53.08
2022-12-03T09:17:21.813Z,55.59
2022-12-03T09:19:48.443Z,57.26
2022-12-03T09:22:16.874Z,57.45
2022-12-03T09:24:43.759Z,60.29
2022-12-03T09:27:14.407Z,61.69
2022-12-03T09:29:42.915Z,62.69
2022-12-03T09:32:13.676Z,61.45
2022-12-03T09:34:50.350Z,58.97
2022-12-03T09:37:17.187Z,55.00
2022-12-03T09:39:44.590Z,56.98
2022-12-03T09:42:11.440Z,58.68
2022-12-03T09:44:38.139Z,59.34
2022-12-03T09:47:09.726Z,60.97
2022-12-03T09:49:38.787Z,62.03
2022-12-03T09:52:06.856Z,63.84
2022-12-03T09:54:34.825Z,59.06
2022-12-03T09:57:07.603Z,55.25
2022-12-03T09:59:37.689Z,56.52
2022-12-03T10:02:34.230Z,58.49
2022-12-03T10:05:00.808Z,59.98
2022-12-03T10:07:27.392Z,60.66
2022-12-03T10:09:54.539Z,61.44
2022-12-03T10:12:24.332Z,62.03
2022-12-03T10:14:52.920Z,64.36
2022-12-03T10:17:19.747Z,62.27
2022-12-03T10:19:46.665Z,55.84
2022-12-03T10:22:14.166Z,55.57
2022-12-03T10:24:41.389Z,57.91
2022-12-03T10:27:30.088Z,59.57
2022-12-03T10:30:00.340Z,61.01
2022-12-03T10:32:47.407Z,61.98
2022-12-03T10:35:24.948Z,62.81
2022-12-03T10:38:01.944Z,62.87
2022-12-03T10:40:35.863Z,55.18
2022-12-03T10:43:24.898Z,52.84
2022-12-03T10:46:12.087Z,56.21
2022-12-03T10:48:39.591Z,57.01
2022-12-03T10:51:21.523Z,58.77
2022-12-03T10:53:50.231Z,60.04
2022-12-03T10:56:26.212Z,61.50
2022-12-03T10:58:53.925Z,61.84
2022-12-03T11:01:26.238Z,62.52
2022-12-03T11:04:01.569Z,63.39
2022-12-03T11:06:32.730Z,56.39
2022-12-03T11:09:03.808Z,55.34
2022-12-03T11:11:34.328Z,57.02
2022-12-03T11:14:04.782Z,58.32
2022-12-03T11:16:40.176Z,59.35
2022-12-03T11:19:12.740Z,60.81
2022-12-03T11:22:04.948Z,61.63
2022-12-03T11:24:37.856Z,61.64
2022-12-03T11:27:06.444Z,61.89
2022-12-03T11:29:59.490Z,64.40
2022-12-03T11:32:45.644Z,59.21
2022-12-03T11:35:16.718Z,55.14
2022-12-03T11:37:43.576Z,55.90
2022-12-03T11:40:16.304Z,57.62
2022-12-03T11:42:46.919Z,58.61
2022-12-03T11:45:32.995Z,60.11
2022-12-03T11:47:59.449Z,61.08
2022-12-03T11:50:52.795Z,61.26
2022-12-03T11:53:22.360Z,61.96
2022-12-03T11:56:05.764Z,63.57
2022-12-03T11:58:34.739Z,63.04
2022-12-03T12:01:06.440Z,59.13
2022-12-03T12:03:35.868Z,52.40
2022-12-03T12:06:15.554Z,53.21
2022-12-03T12:08:58.167Z,53.79
2022-12-03T12:11:31.025Z,56.86
2022-12-03T12:14:01.699Z,58.29
2022-12-03T12:16:54.732Z,59.03
2022-12-03T12:19:43.046Z,60.23
2022-12-03T12:22:24.307Z,60.90
2022-12-03T12:24:54.934Z,62.22
2022-12-03T12:27:33.807Z,64.40
2022-12-03T12:30:13.008Z,63.29
2022-12-03T12:32:47.458Z,56.01
2022-12-03T12:35:25.097Z,54.12
2022-12-03T12:38:20.139Z,55.80
2022-12-03T12:40:51.198Z,57.76
2022-12-03T12:43:28.823Z,58.55
2022-12-03T12:46:24.957Z,59.10
2022-12-03T12:48:54.317Z,60.28
2022-12-03T12:51:24.508Z,61.86
2022-12-03T12:53:53.031Z,62.28
2022-12-03T12:56:24.270Z,63.77
2022-12-03T12:58:52.424Z,59.90
2022-12-03T13:01:25.773Z,54.63
2022-12-03T13:03:53.800Z,54.15
2022-12-03T13:06:28.421Z,56.36
2022-12-03T13:08:56.264Z,58.22
2022-12-03T13:11:53.139Z,59.06
2022-12-03T13:14:23.623Z,60.54
2022-12-03T13:16:54.142Z,61.82
2022-12-03T13:19:25.987Z,62.78
2022-12-03T13:22:01.450Z,61.05
2022-12-03T13:24:55.737Z,56.82
2022-12-03T13:27:32.024Z,56.25
2022-12-03T13:30:17.156Z,58.31
2022-12-03T13:32:44.012Z,60.05
2022-12-03T13:35:31.338Z,61.01
2022-12-03T13:37:58.738Z,61.78
2022-12-03T13:40:32.238Z,62.06
2022-12-03T13:42:58.768Z,64.45
2022-12-03T13:45:36.748Z,60.28
2022-12-03T13:48:20.993Z,55.37
2022-12-03T13:50:48.080Z,55.48
2022-12-03T13:53:37.345Z,54.87
2022-12-03T13:56:27.306Z,57.26
2022-12-03T13:58:55.717Z,58.97
2022-12-03T14:01:23.520Z,58.24
2022-12-03T14:03:50.075Z,58.77
2022-12-03T14:06:16.926Z,61.46
2022-12-03T14:08:43.849Z,66.09
2022-12-03T14:11:34.010Z,67.74
2022-12-03T14:14:00.404Z,57.50
2022-12-03T14:16:26.857Z,52.48
2022-12-03T14:18:53.351Z,53.52
2022-12-03T14:21:20.125Z,53.59
2022-12-03T14:23:46.649Z,54.97
2022-12-03T14:26:13.258Z,57.60
2022-12-03T14:28:39.860Z,57.94
2022-12-03T14:31:06.399Z,58.10
2022-12-03T14:33:33.136Z,59.92
2022-12-03T14:36:00.632Z,62.15
2022-12-03T14:38:27.363Z,66.06
2022-12-03T14:40:54.035Z,66.38
2022-12-03T14:43:20.397Z,56.97
2022-12-03T14:45:46.832Z,51.24
2022-12-03T14:48:13.235Z,51.70
2022-12-03T14:50:39.631Z,55.85
2022-12-03T14:53:06.133Z,56.55
2022-12-03T14:55:33.517Z,59.17
2022-12-03T14:58:00.070Z,59.33
2022-12-03T15:00:27.422Z,61.23
2022-12-03T15:02:53.942Z,62.23
2022-12-03T15:05:26.471Z,62.57
2022-12-03T15:07:55.938Z,58.98
2022-12-03T15:10:22.405Z,56.16
2022-12-03T15:12:48.820Z,57.53
2022-12-03T15:15:15.328Z,59.59
2022-12-03T15:17:45.021Z,61.02
2022-12-03T15:20:12.403Z,61.68
2022-12-03T15:22:38.863Z,63.01
2022-12-03T15:25:06.984Z,59.57
2022-12-03T15:27:35.332Z,56.50
2022-12-03T15:30:01.766Z,57.63
2022-12-03T15:32:28.263Z,59.12
2022-12-03T15:34:54.789Z,60.78
2022-12-03T15:37:21.478Z,61.20
2022-12-03T15:39:48.864Z,62.59
2022-12-03T15:42:15.561Z,62.05
2022-12-03T15:44:42.044Z,57.61
2022-12-03T15:47:10.558Z,55.61
2022-12-03T15:49:36.928Z,57.51
2022-12-03T15:52:04.166Z,59.22
2022-12-03T15:54:31.734Z,60.57
2022-12-03T15:56:58.658Z,61.32
2022-12-03T15:59:25.152Z,62.10
2022-12-03T16:01:52.010Z,63.95
2022-12-03T16:04:18.521Z,64.86
2022-12-03T16:06:45.153Z,58.54
2022-12-03T16:09:12.322Z,53.62
2022-12-03T16:11:38.777Z,53.01
2022-12-03T16:14:05.163Z,55.79
2022-12-03T16:16:31.896Z,58.14
2022-12-03T16:18:58.630Z,59.65
2022-12-03T16:21:27.332Z,59.67
2022-12-03T16:23:55.354Z,61.68
2022-12-03T16:26:23.614Z,63.43
2022-12-03T16:28:51.978Z,63.41
2022-12-03T16:31:18.755Z,56.38
2022-12-03T16:33:45.714Z,54.91
2022-12-03T16:36:12.259Z,55.35
2022-12-03T16:38:38.693Z,57.57
2022-12-03T16:41:05.969Z,59.84
2022-12-03T16:43:38.723Z,61.24
2022-12-03T16:46:15.610Z,61.78
2022-12-03T16:48:43.008Z,62.70
2022-12-03T16:51:10.207Z,63.97
2022-12-03T16:53:36.886Z,61.65
2022-12-03T16:56:03.565Z,54.51
2022-12-03T16:58:32.570Z,53.81
2022-12-03T17:00:59.032Z,56.27
2022-12-03T17:03:30.391Z,58.40
2022-12-03T17:06:01.067Z,60.01
2022-12-03T17:08:27.494Z,60.90
2022-12-03T17:10:53.917Z,61.88
2022-12-03T17:13:22.551Z,62.69
2022-12-03T17:15:50.525Z,62.43
2022-12-03T17:18:16.989Z,58.62
2022-12-03T17:20:43.360Z,54.21
2022-12-03T17:23:11.481Z,54.47
2022-12-03T17:25:38.244Z,56.42
2022-12-03T17:28:07.844Z,57.86
2022-12-03T17:30:34.579Z,59.15
2022-12-03T17:33:00.963Z,59.87
2022-12-03T17:35:27.872Z,61.07
2022-12-03T17:37:54.642Z,61.55
2022-12-03T17:40:21.304Z,63.40
2022-12-03T17:42:47.694Z,60.92
2022-12-03T17:45:14.457Z,55.49
2022-12-03T17:47:40.845Z,55.08
2022-12-03T17:50:08.176Z,56.40
2022-12-03T17:52:34.599Z,56.45
2022-12-03T17:55:27.733Z,58.73
2022-12-03T17:57:47.558Z,57.84
2022-12-03T18:00:14.489Z,60.74
2022-12-03T18:02:40.933Z,60.67
2022-12-03T18:05:08.824Z,62.53
2022-12-03T18:07:35.396Z,65.97
2022-12-03T18:10:01.956Z,60.84
2022-12-03T18:12:28.525Z,53.77
2022-12-03T18:14:54.916Z,54.33
2022-12-03T18:17:21.690Z,56.26
2022-12-03T18:19:48.086Z,57.71
2022-12-03T18:22:15.325Z,58.93
2022-12-03T18:24:44.024Z,59.63
2022-12-03T18:27:12.059Z,60.56
2022-12-03T18:29:38.680Z,61.92
2022-12-03T18:32:27.052Z,62.61
2022-12-03T18:34:56.453Z,63.20
2022-12-03T18:37:27.283Z,59.78
2022-12-03T18:39:55.986Z,54.14
2022-12-03T18:42:23.154Z,52.60
2022-12-03T18:44:53.348Z,54.87
2022-12-03T18:47:24.897Z,57.21
2022-12-03T18:49:53.487Z,58.68
2022-12-03T18:52:24.325Z,60.23
2022-12-03T18:54:50.970Z,59.57
2022-12-03T18:57:17.313Z,61.26
2022-12-03T18:59:44.888Z,62.32
2022-12-03T19:03:02.026Z,64.26
2022-12-03T19:05:10.195Z,62.83
2022-12-03T19:07:37.933Z,55.38
2022-12-03T19:10:05.200Z,52.58
2022-12-03T19:12:32.807Z,52.42
2022-12-03T19:14:59.426Z,55.09
2022-12-03T19:17:26.694Z,57.89
2022-12-03T19:19:54.169Z,60.17
2022-12-03T19:22:21.089Z,59.40
2022-12-03T19:24:48.582Z,61.66
2022-12-03T19:27:15.997Z,62.21
2022-12-03T19:29:42.964Z,64.66
2022-12-03T19:32:09.462Z,68.53
2022-12-03T19:34:36.287Z,61.61
2022-12-03T19:37:03.102Z,52.25
2022-12-03T19:39:29.725Z,51.46
2022-12-03T19:41:56.184Z,53.46
2022-12-03T19:44:22.627Z,54.41
2022-12-03T19:46:50.080Z,56.77
2022-12-03T19:49:20.179Z,57.05
2022-12-03T19:51:48.077Z,58.97
2022-12-03T19:54:17.619Z,60.62
2022-12-03T19:56:44.093Z,61.98
2022-12-03T19:59:13.091Z,63.19
2022-12-03T20:01:42.511Z,65.78
2022-12-03T20:04:11.763Z,64.95
2022-12-03T20:06:38.893Z,55.44
2022-12-03T20:09:16.951Z,51.80
2022-12-03T20:11:45.999Z,53.85
2022-12-03T20:14:15.251Z,55.77
2022-12-03T20:16:44.084Z,57.71
2022-12-03T20:19:17.603Z,58.83
2022-12-03T20:21:44.574Z,58.39
2022-12-03T20:24:16.928Z,59.86
2022-12-03T20:26:45.482Z,59.85
2022-12-03T20:29:12.285Z,63.41
2022-12-03T20:31:40.504Z,61.91
2022-12-03T20:34:07.899Z,56.56
2022-12-03T20:36:34.399Z,55.20
2022-12-03T20:39:04.878Z,56.27
2022-12-03T20:41:35.763Z,58.20
2022-12-03T20:44:03.206Z,59.42
2022-12-03T20:46:32.087Z,59.96
2022-12-03T20:48:59.624Z,61.96
2022-12-03T20:51:30.972Z,62.23
2022-12-03T20:53:59.935Z,66.23
2022-12-03T20:56:31.346Z,63.83
2022-12-03T20:59:09.810Z,57.90
2022-12-03T21:01:37.767Z,51.45
2022-12-03T21:04:06.981Z,51.94
2022-12-03T21:06:36.289Z,54.64
2022-12-03T21:09:06.008Z,56.60
2022-12-03T21:11:35.209Z,59.10
2022-12-03T21:14:03.485Z,60.34
2022-12-03T21:19:21.252Z,61.63
2022-12-03T21:21:48.441Z,62.98
2022-12-03T21:24:14.813Z,63.34
2022-12-03T21:26:41.366Z,57.80
2022-12-03T21:29:08.452Z,54.11
2022-12-03T21:31:36.674Z,56.28
2022-12-03T21:34:04.495Z,57.19
2022-12-03T21:36:31.039Z,58.45
2022-12-03T21:38:57.733Z,59.34
2022-12-03T21:41:24.460Z,60.34
2022-12-03T21:43:51.542Z,61.72
2022-12-03T21:47:10.664Z,63.45
2022-12-03T21:49:04.507Z,60.72
2022-12-03T21:51:30.838Z,56.18
2022-12-03T21:53:57.221Z,56.79
2022-12-03T21:56:24.321Z,58.13
2022-12-03T21:58:52.020Z,59.58
2022-12-03T22:01:21.893Z,60.97
2022-12-03T22:03:49.287Z,62.42
2022-12-03T22:06:16.743Z,63.49
2022-12-03T22:08:43.976Z,63.31
2022-12-03T22:11:19.376Z,56.34
2022-12-03T22:13:46.490Z,53.15
2022-12-03T22:16:18.864Z,55.30
2022-12-03T22:18:46.045Z,57.82
2022-12-03T22:21:17.736Z,58.73
2022-12-03T22:23:45.525Z,59.40
2022-12-03T22:26:15.601Z,60.81
2022-12-03T22:28:47.556Z,62.03
2022-12-03T22:31:15.272Z,64.70
2022-12-03T22:33:42.992Z,63.80
2022-12-03T22:36:19.901Z,60.85
2022-12-03T22:38:49.642Z,52.19
2022-12-03T22:41:17.251Z,50.32
2022-12-03T22:43:45.634Z,50.52
2022-12-03T22:46:13.099Z,51.95
2022-12-03T22:48:42.162Z,52.92
2022-12-03T22:51:22.362Z,53.18
2022-12-03T22:53:57.253Z,53.61
2022-12-03T22:56:27.124Z,56.32
2022-12-03T22:58:54.552Z,56.63
2022-12-03T23:01:30.015Z,56.93
2022-12-03T23:03:57.381Z,57.59
2022-12-03T23:06:25.271Z,57.93
2022-12-03T23:08:53.000Z,57.98
2022-12-03T23:11:19.644Z,58.43
2022-12-03T23:13:46.627Z,59.63
2022-12-03T23:16:19.010Z,60.92
2022-12-03T23:18:45.891Z,60.62
2022-12-03T23:21:22.694Z,60.52
2022-12-03T23:23:52.083Z,63.31
2022-12-03T23:26:18.996Z,66.62
2022-12-03T23:28:47.229Z,65.44
2022-12-03T23:31:18.069Z,61.18
2022-12-03T23:33:46.159Z,50.07
2022-12-03T23:36:15.131Z,49.66
2022-12-03T23:38:42.508Z,50.89
2022-12-03T23:41:16.590Z,50.78
2022-12-03T23:43:42.995Z,52.64
2022-12-03T23:46:17.565Z,55.08
2022-12-03T23:48:44.940Z,58.81
2022-12-03T23:51:19.313Z,59.39
2022-12-03T23:53:46.097Z,58.73
2022-12-03T23:56:17.314Z,61.72
2022-12-03T23:58:45.183Z,63.10
